sensor_id;sensor_type;location;lat;lon;timestamp;pressure;altitude;pressure_sealevel;temperature;humidity
46087;BME280;31824;49.648;8.640;2023-03-01T05:42:53;101199.22;;;-1.61;100.00
46087;BME280;31824;49.648;8.640;2023-03-01T05:54:23;101203.22;;;-1.57;100.00
46087;BME280;31824;49.648;8.640;2023-03-01T06:04:04;101201.09;;;-1.60;100.00
46087;BME280;31824;49.648;8.640;2023-03-01T06:07:18;101190.78;;;-1.60;100.00
46087;BME280;31824;49.648;8.640;2023-03-01T06:10:35;101195.25;;;-1.53;100.00
46087;BME280;31824;49.648;8.640;2023-03-01T06:18:19;101206.78;;;-1.40;100.00
46087;BME280;31824;49.648;8.640;2023-03-01T06:22:35;101197.16;;;-1.41;100.00
46087;BME280;31824;49.648;8.640;2023-03-01T06:25:54;101203.50;;;-1.39;100.00
46087;BME280;31824;49.648;8.640;2023-03-01T06:29:46;101202.53;;;-1.39;100.00
46087;BME280;31824;49.648;8.640;2023-03-01T06:33:36;101200.69;;;-1.34;100.00
46087;BME280;31824;49.648;8.640;2023-03-01T06:36:46;101206.78;;;-1.34;100.00
46087;BME280;31824;49.648;8.640;2023-03-01T06:40:40;101202.09;;;-1.31;100.00
46087;BME280;31824;49.648;8.640;2023-03-01T06:44:44;101208.66;;;-1.39;100.00
46087;BME280;31824;49.648;8.640;2023-03-01T06:48:47;101192.75;;;-1.30;100.00
46087;BME280;31824;49.648;8.640;2023-03-01T06:51:57;101189.94;;;-1.26;100.00
46087;BME280;31824;49.648;8.640;2023-03-01T06:55:08;101192.03;;;-1.24;100.00
46087;BME280;31824;49.648;8.640;2023-03-01T06:58:27;101187.59;;;-1.30;100.00
46087;BME280;31824;49.648;8.640;2023-03-01T07:01:42;101192.75;;;-1.25;100.00
46087;BME280;31824;49.648;8.640;2023-03-01T07:05:00;101194.13;;;-1.27;100.00
46087;BME280;31824;49.648;8.640;2023-03-01T07:08:25;101188.53;;;-1.13;100.00
46087;BME280;31824;49.648;8.640;2023-03-01T07:11:36;101179.38;;;-1.16;100.00
46087;BME280;31824;49.648;8.640;2023-03-01T07:15:32;101181.50;;;-1.08;100.00
46087;BME280;31824;49.648;8.640;2023-03-01T07:18:36;101181.97;;;-1.05;100.00
46087;BME280;31824;49.648;8.640;2023-03-01T07:21:44;101171.19;;;-1.03;100.00
46087;BME280;31824;49.648;8.640;2023-03-01T07:25:20;101171.16;;;-0.91;100.00
46087;BME280;31824;49.648;8.640;2023-03-01T07:28:30;101177.50;;;-0.83;100.00
46087;BME280;31824;49.648;8.640;2023-03-01T07:31:47;101174.47;;;-0.81;100.00
46087;BME280;31824;49.648;8.640;2023-03-01T07:39:06;101167.66;;;-0.75;100.00
46087;BME280;31824;49.648;8.640;2023-03-01T07:42:18;101154.75;;;-0.80;100.00
46087;BME280;31824;49.648;8.640;2023-03-01T07:45:51;101158.50;;;-0.73;100.00
46087;BME280;31824;49.648;8.640;2023-03-01T07:49:02;101154.03;;;-0.68;100.00
46087;BME280;31824;49.648;8.640;2023-03-01T07:52:38;101154.97;;;-0.68;100.00
46087;BME280;31824;49.648;8.640;2023-03-01T07:55:50;101162.00;;;-0.55;100.00
46087;BME280;31824;49.648;8.640;2023-03-01T07:59:07;101156.34;;;-0.47;100.00
46087;BME280;31824;49.648;8.640;2023-03-01T08:02:17;101154.34;;;-0.08;100.00
46087;BME280;31824;49.648;8.640;2023-03-01T08:05:42;101147.41;;;0.15;100.00
46087;BME280;31824;49.648;8.640;2023-03-01T08:08:47;101138.97;;;0.57;100.00
46087;BME280;31824;49.648;8.640;2023-03-01T08:11:51;101143.75;;;0.78;100.00
46087;BME280;31824;49.648;8.640;2023-03-01T08:15:16;101135.66;;;0.58;100.00
46087;BME280;31824;49.648;8.640;2023-03-01T08:18:27;101130.22;;;0.62;100.00
46087;BME280;31824;49.648;8.640;2023-03-01T08:21:48;101135.28;;;0.79;100.00
46087;BME280;31824;49.648;8.640;2023-03-01T08:25:04;101129.41;;;1.05;100.00
46087;BME280;31824;49.648;8.640;2023-03-01T08:28:36;101131.66;;;0.90;100.00
46087;BME280;31824;49.648;8.640;2023-03-01T08:31:44;101127.81;;;1.24;100.00
46087;BME280;31824;49.648;8.640;2023-03-01T08:34:50;101131.63;;;1.44;100.00
46087;BME280;31824;49.648;8.640;2023-03-01T08:38:10;101134.44;;;1.64;100.00
46087;BME280;31824;49.648;8.640;2023-03-01T08:41:19;101132.19;;;1.79;100.00
46087;BME280;31824;49.648;8.640;2023-03-01T08:44:33;101118.50;;;1.80;100.00
46087;BME280;31824;49.648;8.640;2023-03-01T08:47:40;101113.03;;;1.84;100.00
46087;BME280;31824;49.648;8.640;2023-03-01T08:50:45;101109.00;;;1.86;100.00
46087;BME280;31824;49.648;8.640;2023-03-01T08:53:50;101106.41;;;1.86;100.00
46087;BME280;31824;49.648;8.640;2023-03-01T08:56:55;101097.34;;;1.95;100.00
46087;BME280;31824;49.648;8.640;2023-03-01T09:00:07;101098.47;;;2.16;100.00
46087;BME280;31824;49.648;8.640;2023-03-01T09:04:00;101082.22;;;2.30;100.00
46087;BME280;31824;49.648;8.640;2023-03-01T09:07:11;101099.75;;;2.25;100.00
46087;BME280;31824;49.648;8.640;2023-03-01T09:10:45;101093.09;;;2.46;100.00
46087;BME280;31824;49.648;8.640;2023-03-01T09:13:51;101085.31;;;2.46;100.00
46087;BME280;31824;49.648;8.640;2023-03-01T09:17:00;101087.31;;;2.54;100.00
46087;BME280;31824;49.648;8.640;2023-03-01T09:25:24;101069.28;;;2.74;100.00
46087;BME280;31824;49.648;8.640;2023-03-01T09:28:36;101080.59;;;2.75;100.00
46087;BME280;31824;49.648;8.640;2023-03-01T09:31:46;101057.50;;;3.02;100.00
46087;BME280;31824;49.648;8.640;2023-03-01T09:34:52;101076.38;;;3.01;100.00
46087;BME280;31824;49.648;8.640;2023-03-01T09:38:15;101067.44;;;3.25;100.00
46087;BME280;31824;49.648;8.640;2023-03-01T09:42:47;101050.31;;;3.07;100.00
46087;BME280;31824;49.648;8.640;2023-03-01T09:46:17;101065.16;;;3.33;100.00
46087;BME280;31824;49.648;8.640;2023-03-01T09:49:33;101060.25;;;3.55;100.00
46087;BME280;31824;49.648;8.640;2023-03-01T09:52:50;101066.38;;;3.55;100.00
46087;BME280;31824;49.648;8.640;2023-03-01T09:56:01;101052.50;;;3.75;100.00
46087;BME280;31824;49.648;8.640;2023-03-01T09:59:23;101063.28;;;3.91;100.00
46087;BME280;31824;49.648;8.640;2023-03-01T10:08:40;101064.19;;;4.25;100.00
46087;BME280;31824;49.648;8.640;2023-03-01T10:17:27;101043.81;;;4.55;100.00
46087;BME280;31824;49.648;8.640;2023-03-01T10:20:50;101048.09;;;4.54;100.00
46087;BME280;31824;49.648;8.640;2023-03-01T10:24:17;101045.72;;;4.36;100.00
46087;BME280;31824;49.648;8.640;2023-03-01T10:27:35;101027.84;;;4.32;100.00
46087;BME280;31824;49.648;8.640;2023-03-01T10:30:54;101044.63;;;4.61;100.00
46087;BME280;31824;49.648;8.640;2023-03-01T10:34:13;101036.75;;;5.08;100.00
46087;BME280;31824;49.648;8.640;2023-03-01T10:37:24;101029.22;;;5.24;100.00
46087;BME280;31824;49.648;8.640;2023-03-01T10:46:46;101015.31;;;5.38;100.00
46087;BME280;31824;49.648;8.640;2023-03-01T10:50:41;101004.91;;;5.38;100.00
46087;BME280;31824;49.648;8.640;2023-03-01T10:54:09;101008.81;;;5.35;100.00
46087;BME280;31824;49.648;8.640;2023-03-01T10:58:35;100991.19;;;5.47;100.00
46087;BME280;31824;49.648;8.640;2023-03-01T11:02:04;100992.78;;;5.88;100.00
46087;BME280;31824;49.648;8.640;2023-03-01T11:06:40;100972.94;;;6.32;100.00
46087;BME280;31824;49.648;8.640;2023-03-01T11:09:46;100975.34;;;6.01;100.00
46087;BME280;31824;49.648;8.640;2023-03-01T11:17:59;100955.94;;;5.99;100.00
46087;BME280;31824;49.648;8.640;2023-03-01T11:22:14;100954.78;;;5.83;100.00
46087;BME280;31824;49.648;8.640;2023-03-01T11:26:47;100953.88;;;6.62;100.00
46087;BME280;31824;49.648;8.640;2023-03-01T11:30:29;100939.31;;;6.71;100.00
46087;BME280;31824;49.648;8.640;2023-03-01T11:33:43;100943.06;;;6.66;100.00
46087;BME280;31824;49.648;8.640;2023-03-01T11:36:51;100956.56;;;7.06;100.00
46087;BME280;31824;49.648;8.640;2023-03-01T11:40:43;100950.69;;;7.23;100.00
46087;BME280;31824;49.648;8.640;2023-03-01T11:44:39;100925.59;;;7.47;100.00
46087;BME280;31824;49.648;8.640;2023-03-01T11:48:01;100933.19;;;7.15;100.00
46087;BME280;31824;49.648;8.640;2023-03-01T11:51:44;100922.59;;;7.06;100.00
46087;BME280;31824;49.648;8.640;2023-03-01T12:07:21;100890.72;;;7.02;100.00
46087;BME280;31824;49.648;8.640;2023-03-01T12:10:49;100896.41;;;6.76;100.00
46087;BME280;31824;49.648;8.640;2023-03-01T12:14:39;100880.94;;;7.15;100.00
46087;BME280;31824;49.648;8.640;2023-03-01T12:22:07;100870.25;;;7.28;100.00
46087;BME280;31824;49.648;8.640;2023-03-01T12:25:35;100861.44;;;7.35;100.00
46087;BME280;31824;49.648;8.640;2023-03-01T12:28:57;100854.72;;;7.60;100.00
46087;BME280;31824;49.648;8.640;2023-03-01T12:32:44;100843.69;;;8.25;100.00
46087;BME280;31824;49.648;8.640;2023-03-01T12:36:15;100845.66;;;8.19;100.00
46087;BME280;31824;49.648;8.640;2023-03-01T12:40:20;100827.53;;;7.74;100.00
46087;BME280;31824;49.648;8.640;2023-03-01T12:44:01;100832.88;;;7.59;100.00
46087;BME280;31824;49.648;8.640;2023-03-01T12:47:35;100827.78;;;8.47;100.00
46087;BME280;31824;49.648;8.640;2023-03-01T12:51:10;100805.91;;;8.62;100.00
46087;BME280;31824;49.648;8.640;2023-03-01T12:54:33;100801.25;;;8.91;100.00
46087;BME280;31824;49.648;8.640;2023-03-01T12:58:38;100799.44;;;9.40;100.00
46087;BME280;31824;49.648;8.640;2023-03-01T13:02:13;100787.13;;;8.82;100.00
46087;BME280;31824;49.648;8.640;2023-03-01T13:05:37;100780.88;;;8.89;100.00
46087;BME280;31824;49.648;8.640;2023-03-01T13:08:52;100772.06;;;8.64;100.00
46087;BME280;31824;49.648;8.640;2023-03-01T13:16:43;100767.41;;;9.26;100.00
46087;BME280;31824;49.648;8.640;2023-03-01T13:19:59;100768.69;;;8.49;100.00
46087;BME280;31824;49.648;8.640;2023-03-01T13:23:39;100766.91;;;8.97;100.00
46087;BME280;31824;49.648;8.640;2023-03-01T13:30:44;100764.25;;;8.88;100.00
46087;BME280;31824;49.648;8.640;2023-03-01T13:33:52;100765.41;;;8.99;100.00
46087;BME280;31824;49.648;8.640;2023-03-01T13:37:23;100747.94;;;9.49;100.00
46087;BME280;31824;49.648;8.640;2023-03-01T13:46:19;100752.59;;;11.52;100.00
46087;BME280;31824;49.648;8.640;2023-03-01T13:49:25;100742.69;;;11.86;100.00
46087;BME280;31824;49.648;8.640;2023-03-01T13:52:38;100728.63;;;10.86;100.00
46087;BME280;31824;49.648;8.640;2023-03-01T13:55:41;100711.50;;;12.27;98.68
46087;BME280;31824;49.648;8.640;2023-03-01T13:58:53;100718.72;;;11.82;98.47
46087;BME280;31824;49.648;8.640;2023-03-01T14:01:59;100721.75;;;10.26;100.00
46087;BME280;31824;49.648;8.640;2023-03-01T14:05:01;100721.34;;;10.48;100.00
46087;BME280;31824;49.648;8.640;2023-03-01T14:15:38;100722.72;;;10.79;100.00
46087;BME280;31824;49.648;8.640;2023-03-01T14:19:55;100713.84;;;10.00;100.00
46087;BME280;31824;49.648;8.640;2023-03-01T14:24:38;100718.28;;;10.61;100.00
46087;BME280;31824;49.648;8.640;2023-03-01T14:27:57;100709.13;;;10.66;100.00
46087;BME280;31824;49.648;8.640;2023-03-01T14:35:59;100710.59;;;11.98;96.67
46087;BME280;31824;49.648;8.640;2023-03-01T14:40:29;100700.41;;;11.11;100.00
46087;BME280;31824;49.648;8.640;2023-03-01T14:43:49;100693.69;;;10.43;96.38
46087;BME280;31824;49.648;8.640;2023-03-01T14:57:58;100685.19;;;11.26;97.45
46087;BME280;31824;49.648;8.640;2023-03-01T15:01:13;100684.53;;;11.01;96.91
46087;BME280;31824;49.648;8.640;2023-03-01T15:04:24;100695.09;;;11.37;92.99
46087;BME280;31824;49.648;8.640;2023-03-01T15:07:46;100679.66;;;11.23;94.76
46087;BME280;31824;49.648;8.640;2023-03-01T15:11:20;100669.09;;;10.25;98.98
46087;BME280;31824;49.648;8.640;2023-03-01T15:14:43;100685.56;;;9.80;100.00
46087;BME280;31824;49.648;8.640;2023-03-01T15:18:28;100694.06;;;9.86;100.00
46087;BME280;31824;49.648;8.640;2023-03-01T15:21:38;100686.16;;;9.69;100.00
46087;BME280;31824;49.648;8.640;2023-03-01T15:29:32;100698.25;;;9.93;100.00
46087;BME280;31824;49.648;8.640;2023-03-01T15:32:48;100703.16;;;9.90;100.00
46087;BME280;31824;49.648;8.640;2023-03-01T15:35:57;100713.59;;;9.72;100.00
46087;BME280;31824;49.648;8.640;2023-03-01T15:39:33;100704.97;;;9.65;100.00
46087;BME280;31824;49.648;8.640;2023-03-01T15:42:51;100710.78;;;9.20;100.00
46087;BME280;31824;49.648;8.640;2023-03-01T15:46:26;100706.25;;;9.10;100.00
46087;BME280;31824;49.648;8.640;2023-03-01T15:54:06;100712.69;;;9.05;100.00
46087;BME280;31824;49.648;8.640;2023-03-01T15:58:23;100718.91;;;8.89;100.00
46087;BME280;31824;49.648;8.640;2023-03-01T16:01:26;100722.16;;;8.87;100.00
46087;BME280;31824;49.648;8.640;2023-03-01T16:04:32;100719.69;;;8.64;100.00
46087;BME280;31824;49.648;8.640;2023-03-01T16:07:36;100707.94;;;8.60;100.00
46087;BME280;31824;49.648;8.640;2023-03-01T16:10:48;100715.09;;;8.54;100.00
46087;BME280;31824;49.648;8.640;2023-03-01T16:13:52;100709.69;;;8.36;100.00
46087;BME280;31824;49.648;8.640;2023-03-01T16:16:56;100712.06;;;8.26;100.00
46087;BME280;31824;49.648;8.640;2023-03-01T16:19:59;100713.84;;;8.18;100.00
46087;BME280;31824;49.648;8.640;2023-03-01T16:23:06;100711.81;;;8.00;100.00
46087;BME280;31824;49.648;8.640;2023-03-01T16:26:14;100717.38;;;7.87;100.00
46087;BME280;31824;49.648;8.640;2023-03-01T16:29:17;100723.59;;;7.80;100.00
46087;BME280;31824;49.648;8.640;2023-03-01T16:32:20;100720.72;;;7.70;100.00
46087;BME280;31824;49.648;8.640;2023-03-01T16:35:23;100726.06;;;7.55;100.00
46087;BME280;31824;49.648;8.640;2023-03-01T16:38:26;100722.41;;;7.46;100.00
46087;BME280;31824;49.648;8.640;2023-03-01T16:41:30;100725.03;;;7.46;100.00
46087;BME280;31824;49.648;8.640;2023-03-01T16:50:12;100727.56;;;7.14;100.00
46087;BME280;31824;49.648;8.640;2023-03-01T17:04:32;100715.41;;;6.61;100.00
46087;BME280;31824;49.648;8.640;2023-03-01T17:07:40;100724.00;;;6.53;100.00
46087;BME280;31824;49.648;8.640;2023-03-01T17:10:44;100725.53;;;6.44;100.00
46087;BME280;31824;49.648;8.640;2023-03-01T17:13:49;100725.03;;;6.32;100.00
46087;BME280;31824;49.648;8.640;2023-03-01T17:16:51;100728.63;;;6.18;100.00
46087;BME280;31824;49.648;8.640;2023-03-01T17:19:58;100715.63;;;6.03;100.00
46087;BME280;31824;49.648;8.640;2023-03-01T17:23:39;100723.84;;;5.85;100.00
46087;BME280;31824;49.648;8.640;2023-03-01T17:33:26;100733.75;;;5.66;100.00
46087;BME280;31824;49.648;8.640;2023-03-01T17:36:34;100726.13;;;5.53;100.00
46087;BME280;31824;49.648;8.640;2023-03-01T17:39:43;100716.63;;;5.46;100.00
46087;BME280;31824;49.648;8.640;2023-03-01T17:48:06;100711.06;;;5.21;100.00
46087;BME280;31824;49.648;8.640;2023-03-01T18:05:47;100705.25;;;4.81;100.00
46087;BME280;31824;49.648;8.640;2023-03-01T18:08:56;100698.53;;;4.68;100.00
46087;BME280;31824;49.648;8.640;2023-03-01T18:12:02;100708.88;;;4.54;100.00
46087;BME280;31824;49.648;8.640;2023-03-01T18:15:09;100719.69;;;4.57;100.00
46087;BME280;31824;49.648;8.640;2023-03-01T18:18:24;100708.88;;;4.54;100.00
46087;BME280;31824;49.648;8.640;2023-03-01T18:21:32;100707.97;;;4.46;100.00
46087;BME280;31824;49.648;8.640;2023-03-01T18:24:47;100721.47;;;4.36;100.00
46087;BME280;31824;49.648;8.640;2023-03-01T18:28:21;100714.91;;;4.18;100.00
46087;BME280;31824;49.648;8.640;2023-03-01T18:33:37;100719.97;;;3.97;100.00
46087;BME280;31824;49.648;8.640;2023-03-01T18:38:31;100729.69;;;3.70;100.00
46087;BME280;31824;49.648;8.640;2023-03-01T18:42:01;100730.19;;;3.41;100.00
46087;BME280;31824;49.648;8.640;2023-03-01T19:01:30;100741.81;;;3.30;100.00
46087;BME280;31824;49.648;8.640;2023-03-01T19:05:32;100742.66;;;3.23;100.00
46087;BME280;31824;49.648;8.640;2023-03-01T19:08:36;100736.81;;;3.11;100.00
46087;BME280;31824;49.648;8.640;2023-03-01T19:11:42;100745.75;;;3.33;100.00
46087;BME280;31824;49.648;8.640;2023-03-01T19:15:33;100740.94;;;3.16;100.00
46087;BME280;31824;49.648;8.640;2023-03-01T19:19:13;100743.34;;;3.15;100.00
46087;BME280;31824;49.648;8.640;2023-03-01T19:22:17;100747.72;;;3.09;100.00
46087;BME280;31824;49.648;8.640;2023-03-01T19:25:45;100747.13;;;3.04;100.00
46087;BME280;31824;49.648;8.640;2023-03-01T19:28:48;100743.66;;;2.91;100.00
46087;BME280;31824;49.648;8.640;2023-03-01T19:31:52;100738.69;;;2.59;100.00
46087;BME280;31824;49.648;8.640;2023-03-01T19:34:56;100730.38;;;2.62;100.00
46087;BME280;31824;49.648;8.640;2023-03-01T19:38:26;100737.31;;;2.68;100.00
46087;BME280;31824;49.648;8.640;2023-03-01T19:41:34;100747.72;;;2.56;100.00
